sensor_id;sensor_type;location;lat;lon;timestamp;temperature;humidity
2639;DHT22;1329;51.384;7.122;2022-12-20T00:00:49;11.80;99.90
2639;DHT22;1329;51.384;7.122;2022-12-20T00:03:16;11.80;99.90
2639;DHT22;1329;51.384;7.122;2022-12-20T00:05:44;11.80;99.90
2639;DHT22;1329;51.384;7.122;2022-12-20T00:08:12;11.80;99.90
2639;DHT22;1329;51.384;7.122;2022-12-20T00:10:40;11.90;99.90
2639;DHT22;1329;51.384;7.122;2022-12-20T00:13:08;11.90;99.90
2639;DHT22;1329;51.384;7.122;2022-12-20T00:15:43;11.90;99.90
2639;DHT22;1329;51.384;7.122;2022-12-20T00:18:10;11.90;99.90
2639;DHT22;1329;51.384;7.122;2022-12-20T00:20:37;12.00;99.90
2639;DHT22;1329;51.384;7.122;2022-12-20T00:23:05;11.90;99.90
2639;DHT22;1329;51.384;7.122;2022-12-20T00:25:33;11.90;99.90
2639;DHT22;1329;51.384;7.122;2022-12-20T00:28:00;11.90;99.90
2639;DHT22;1329;51.384;7.122;2022-12-20T00:30:28;11.90;99.90
2639;DHT22;1329;51.384;7.122;2022-12-20T00:32:57;11.90;99.90
2639;DHT22;1329;51.384;7.122;2022-12-20T00:35:24;12.00;99.90
2639;DHT22;1329;51.384;7.122;2022-12-20T00:37:51;12.00;99.90
2639;DHT22;1329;51.384;7.122;2022-12-20T00:40:18;12.00;99.90
2639;DHT22;1329;51.384;7.122;2022-12-20T00:42:45;12.00;99.90
2639;DHT22;1329;51.384;7.122;2022-12-20T00:45:13;12.00;99.90
2639;DHT22;1329;51.384;7.122;2022-12-20T00:47:40;12.00;99.90
2639;DHT22;1329;51.384;7.122;2022-12-20T00:50:09;12.00;99.90
2639;DHT22;1329;51.384;7.122;2022-12-20T00:52:36;11.90;99.90
2639;DHT22;1329;51.384;7.122;2022-12-20T00:55:04;11.90;99.90
2639;DHT22;1329;51.384;7.122;2022-12-20T00:57:31;11.90;99.90
2639;DHT22;1329;51.384;7.122;2022-12-20T00:59:58;11.90;99.90
2639;DHT22;1329;51.384;7.122;2022-12-20T01:02:25;11.90;99.90
2639;DHT22;1329;51.384;7.122;2022-12-20T01:04:52;11.90;99.90
2639;DHT22;1329;51.384;7.122;2022-12-20T01:07:21;11.90;99.90
2639;DHT22;1329;51.384;7.122;2022-12-20T01:09:49;11.90;99.90
2639;DHT22;1329;51.384;7.122;2022-12-20T01:12:16;11.90;99.90
2639;DHT22;1329;51.384;7.122;2022-12-20T01:14:43;11.90;99.90
2639;DHT22;1329;51.384;7.122;2022-12-20T01:17:10;11.90;99.90
2639;DHT22;1329;51.384;7.122;2022-12-20T01:19:37;12.00;99.90
2639;DHT22;1329;51.384;7.122;2022-12-20T01:22:08;11.90;99.90
2639;DHT22;1329;51.384;7.122;2022-12-20T01:24:37;12.00;99.90
2639;DHT22;1329;51.384;7.122;2022-12-20T01:27:04;12.00;99.90
2639;DHT22;1329;51.384;7.122;2022-12-20T01:29:31;12.00;99.90
2639;DHT22;1329;51.384;7.122;2022-12-20T01:31:58;12.00;99.90
2639;DHT22;1329;51.384;7.122;2022-12-20T01:34:25;12.00;99.90
2639;DHT22;1329;51.384;7.122;2022-12-20T01:36:52;12.00;99.90
2639;DHT22;1329;51.384;7.122;2022-12-20T01:39:19;12.10;99.90
2639;DHT22;1329;51.384;7.122;2022-12-20T01:41:47;12.00;99.90
2639;DHT22;1329;51.384;7.122;2022-12-20T01:44:54;12.00;99.90
2639;DHT22;1329;51.384;7.122;2022-12-20T01:47:26;12.10;99.90
2639;DHT22;1329;51.384;7.122;2022-12-20T01:49:58;12.10;99.90
2639;DHT22;1329;51.384;7.122;2022-12-20T01:52:33;12.10;99.90
2639;DHT22;1329;51.384;7.122;2022-12-20T01:55:06;12.10;99.90
2639;DHT22;1329;51.384;7.122;2022-12-20T01:57:41;12.10;99.90
2639;DHT22;1329;51.384;7.122;2022-12-20T02:00:11;12.10;99.90
2639;DHT22;1329;51.384;7.122;2022-12-20T02:02:40;12.10;99.90
2639;DHT22;1329;51.384;7.122;2022-12-20T02:05:08;12.10;99.90
2639;DHT22;1329;51.384;7.122;2022-12-20T02:07:37;12.10;99.90
2639;DHT22;1329;51.384;7.122;2022-12-20T02:10:07;12.10;99.90
2639;DHT22;1329;51.384;7.122;2022-12-20T02:12:39;12.00;99.90
2639;DHT22;1329;51.384;7.122;2022-12-20T02:15:27;12.00;99.90
2639;DHT22;1329;51.384;7.122;2022-12-20T02:18:07;12.00;99.90
2639;DHT22;1329;51.384;7.122;2022-12-20T02:21:04;12.00;99.90
2639;DHT22;1329;51.384;7.122;2022-12-20T02:27:16;11.90;99.90
2639;DHT22;1329;51.384;7.122;2022-12-20T02:30:05;11.90;99.90
2639;DHT22;1329;51.384;7.122;2022-12-20T02:32:38;11.90;99.90
2639;DHT22;1329;51.384;7.122;2022-12-20T02:35:09;11.80;99.90
2639;DHT22;1329;51.384;7.122;2022-12-20T02:37:47;11.80;99.90
2639;DHT22;1329;51.384;7.122;2022-12-20T02:40:17;11.80;99.90
2639;DHT22;1329;51.384;7.122;2022-12-20T02:42:48;11.70;99.90
2639;DHT22;1329;51.384;7.122;2022-12-20T02:45:21;11.70;99.90
2639;DHT22;1329;51.384;7.122;2022-12-20T02:47:52;11.70;99.90
2639;DHT22;1329;51.384;7.122;2022-12-20T02:50:27;11.60;99.90
2639;DHT22;1329;51.384;7.122;2022-12-20T02:52:58;11.70;99.90
2639;DHT22;1329;51.384;7.122;2022-12-20T02:55:33;11.60;99.90
2639;DHT22;1329;51.384;7.122;2022-12-20T02:58:10;11.70;99.90
2639;DHT22;1329;51.384;7.122;2022-12-20T03:00:43;11.70;99.90
2639;DHT22;1329;51.384;7.122;2022-12-20T03:03:13;11.70;99.90
2639;DHT22;1329;51.384;7.122;2022-12-20T03:05:51;11.70;99.90
2639;DHT22;1329;51.384;7.122;2022-12-20T03:08:20;11.70;99.90
2639;DHT22;1329;51.384;7.122;2022-12-20T03:10:49;11.70;99.90
2639;DHT22;1329;51.384;7.122;2022-12-20T03:13:17;11.70;99.90
2639;DHT22;1329;51.384;7.122;2022-12-20T03:15:45;11.70;99.90
2639;DHT22;1329;51.384;7.122;2022-12-20T03:18:13;11.70;99.90
2639;DHT22;1329;51.384;7.122;2022-12-20T03:20:40;11.70;99.90
2639;DHT22;1329;51.384;7.122;2022-12-20T03:23:07;11.80;99.90
2639;DHT22;1329;51.384;7.122;2022-12-20T03:25:34;11.80;99.90
2639;DHT22;1329;51.384;7.122;2022-12-20T03:28:01;11.80;99.90
2639;DHT22;1329;51.384;7.122;2022-12-20T03:30:28;11.80;99.90
2639;DHT22;1329;51.384;7.122;2022-12-20T03:32:57;11.80;99.90
2639;DHT22;1329;51.384;7.122;2022-12-20T03:35:24;11.80;99.90
2639;DHT22;1329;51.384;7.122;2022-12-20T03:37:51;11.80;99.90
2639;DHT22;1329;51.384;7.122;2022-12-20T03:40:19;11.80;99.90
2639;DHT22;1329;51.384;7.122;2022-12-20T03:42:47;11.80;99.90
2639;DHT22;1329;51.384;7.122;2022-12-20T03:45:14;11.80;99.90
2639;DHT22;1329;51.384;7.122;2022-12-20T03:47:41;11.80;99.90
2639;DHT22;1329;51.384;7.122;2022-12-20T03:50:10;11.70;99.90
2639;DHT22;1329;51.384;7.122;2022-12-20T03:52:38;11.70;99.90
2639;DHT22;1329;51.384;7.122;2022-12-20T03:55:06;11.70;99.90
2639;DHT22;1329;51.384;7.122;2022-12-20T03:57:37;11.60;99.90
2639;DHT22;1329;51.384;7.122;2022-12-20T04:00:05;11.60;99.90
2639;DHT22;1329;51.384;7.122;2022-12-20T04:02:33;11.60;99.90
2639;DHT22;1329;51.384;7.122;2022-12-20T04:05:00;11.50;99.90
2639;DHT22;1329;51.384;7.122;2022-12-20T04:07:28;11.50;99.90
2639;DHT22;1329;51.384;7.122;2022-12-20T04:09:55;11.50;99.90
2639;DHT22;1329;51.384;7.122;2022-12-20T04:12:22;11.40;99.90
2639;DHT22;1329;51.384;7.122;2022-12-20T04:14:49;11.40;99.90
2639;DHT22;1329;51.384;7.122;2022-12-20T04:17:16;11.40;99.90
2639;DHT22;1329;51.384;7.122;2022-12-20T04:19:44;11.40;99.90
2639;DHT22;1329;51.384;7.122;2022-12-20T04:22:11;11.40;99.90
2639;DHT22;1329;51.384;7.122;2022-12-20T04:24:39;11.40;99.90
2639;DHT22;1329;51.384;7.122;2022-12-20T04:27:06;11.40;99.90
2639;DHT22;1329;51.384;7.122;2022-12-20T04:29:33;11.40;99.90
2639;DHT22;1329;51.384;7.122;2022-12-20T04:32:00;11.40;99.90
2639;DHT22;1329;51.384;7.122;2022-12-20T04:34:27;11.30;99.90
2639;DHT22;1329;51.384;7.122;2022-12-20T04:36:54;11.30;99.90
2639;DHT22;1329;51.384;7.122;2022-12-20T04:39:23;11.30;99.90
2639;DHT22;1329;51.384;7.122;2022-12-20T04:41:52;11.30;99.90
2639;DHT22;1329;51.384;7.122;2022-12-20T04:44:19;11.30;99.90
2639;DHT22;1329;51.384;7.122;2022-12-20T04:46:46;11.30;99.90
2639;DHT22;1329;51.384;7.122;2022-12-20T04:49:13;11.30;99.90
2639;DHT22;1329;51.384;7.122;2022-12-20T04:51:41;11.20;99.90
2639;DHT22;1329;51.384;7.122;2022-12-20T04:54:08;11.30;99.90
2639;DHT22;1329;51.384;7.122;2022-12-20T04:56:34;11.20;99.90
2639;DHT22;1329;51.384;7.122;2022-12-20T04:59:03;11.20;99.90
2639;DHT22;1329;51.384;7.122;2022-12-20T05:01:31;11.20;99.90
2639;DHT22;1329;51.384;7.122;2022-12-20T05:03:59;11.20;99.90
2639;DHT22;1329;51.384;7.122;2022-12-20T05:06:29;11.20;99.90
2639;DHT22;1329;51.384;7.122;2022-12-20T05:09:00;11.20;99.90
2639;DHT22;1329;51.384;7.122;2022-12-20T05:11:30;11.20;99.90
2639;DHT22;1329;51.384;7.122;2022-12-20T05:14:00;11.20;99.90
2639;DHT22;1329;51.384;7.122;2022-12-20T05:16:28;11.10;99.90
2639;DHT22;1329;51.384;7.122;2022-12-20T05:18:55;11.20;99.90
2639;DHT22;1329;51.384;7.122;2022-12-20T05:21:22;11.20;99.90
2639;DHT22;1329;51.384;7.122;2022-12-20T05:24:09;11.10;99.90
2639;DHT22;1329;51.384;7.122;2022-12-20T05:26:53;11.10;99.90
2639;DHT22;1329;51.384;7.122;2022-12-20T05:29:20;11.10;99.90
2639;DHT22;1329;51.384;7.122;2022-12-20T05:31:49;11.10;99.90
2639;DHT22;1329;51.384;7.122;2022-12-20T05:34:16;11.10;99.90
2639;DHT22;1329;51.384;7.122;2022-12-20T05:36:43;11.10;99.90
2639;DHT22;1329;51.384;7.122;2022-12-20T05:39:10;11.10;99.90
2639;DHT22;1329;51.384;7.122;2022-12-20T05:41:38;11.10;99.90
2639;DHT22;1329;51.384;7.122;2022-12-20T05:44:06;11.10;99.90
2639;DHT22;1329;51.384;7.122;2022-12-20T05:46:33;11.10;99.90
2639;DHT22;1329;51.384;7.122;2022-12-20T05:49:02;11.10;99.90
2639;DHT22;1329;51.384;7.122;2022-12-20T05:51:29;11.10;99.90
2639;DHT22;1329;51.384;7.122;2022-12-20T05:53:57;11.10;99.90
2639;DHT22;1329;51.384;7.122;2022-12-20T05:56:24;11.10;99.90
2639;DHT22;1329;51.384;7.122;2022-12-20T05:58:52;11.10;99.90
2639;DHT22;1329;51.384;7.122;2022-12-20T06:01:19;11.10;99.90
2639;DHT22;1329;51.384;7.122;2022-12-20T06:03:46;11.10;99.90
2639;DHT22;1329;51.384;7.122;2022-12-20T06:06:19;11.20;99.90
2639;DHT22;1329;51.384;7.122;2022-12-20T06:08:47;11.10;99.90
2639;DHT22;1329;51.384;7.122;2022-12-20T06:11:16;11.20;99.90
2639;DHT22;1329;51.384;7.122;2022-12-20T06:13:43;11.20;99.90
2639;DHT22;1329;51.384;7.122;2022-12-20T06:16:10;11.20;99.90
2639;DHT22;1329;51.384;7.122;2022-12-20T06:18:38;11.20;99.90
2639;DHT22;1329;51.384;7.122;2022-12-20T06:21:05;11.20;99.90
2639;DHT22;1329;51.384;7.122;2022-12-20T06:23:36;11.20;99.90
2639;DHT22;1329;51.384;7.122;2022-12-20T06:26:04;11.20;99.90
2639;DHT22;1329;51.384;7.122;2022-12-20T06:28:33;11.20;99.90
2639;DHT22;1329;51.384;7.122;2022-12-20T06:31:09;11.30;99.90
2639;DHT22;1329;51.384;7.122;2022-12-20T06:33:37;11.30;99.90
2639;DHT22;1329;51.384;7.122;2022-12-20T06:36:05;11.30;99.90
2639;DHT22;1329;51.384;7.122;2022-12-20T06:38:33;11.30;99.90
2639;DHT22;1329;51.384;7.122;2022-12-20T06:41:01;11.30;99.90
2639;DHT22;1329;51.384;7.122;2022-12-20T06:43:28;11.30;99.90
2639;DHT22;1329;51.384;7.122;2022-12-20T06:45:55;11.30;99.90
2639;DHT22;1329;51.384;7.122;2022-12-20T06:48:22;11.30;99.90
2639;DHT22;1329;51.384;7.122;2022-12-20T06:50:49;11.40;99.90
2639;DHT22;1329;51.384;7.122;2022-12-20T06:53:17;11.40;99.90
2639;DHT22;1329;51.384;7.122;2022-12-20T06:55:47;11.40;99.90
2639;DHT22;1329;51.384;7.122;2022-12-20T06:58:15;11.40;99.90
2639;DHT22;1329;51.384;7.122;2022-12-20T07:00:43;11.40;99.90
2639;DHT22;1329;51.384;7.122;2022-12-20T07:03:10;11.40;99.90
2639;DHT22;1329;51.384;7.122;2022-12-20T07:05:37;11.40;99.90
2639;DHT22;1329;51.384;7.122;2022-12-20T07:08:05;11.50;99.90
2639;DHT22;1329;51.384;7.122;2022-12-20T07:10:33;11.50;99.90
2639;DHT22;1329;51.384;7.122;2022-12-20T07:13:02;11.50;99.90
2639;DHT22;1329;51.384;7.122;2022-12-20T07:15:29;11.50;99.90
2639;DHT22;1329;51.384;7.122;2022-12-20T07:17:57;11.50;99.90
2639;DHT22;1329;51.384;7.122;2022-12-20T07:20:24;11.50;99.90
2639;DHT22;1329;51.384;7.122;2022-12-20T07:22:52;11.50;99.90
2639;DHT22;1329;51.384;7.122;2022-12-20T07:25:19;11.50;99.90
2639;DHT22;1329;51.384;7.122;2022-12-20T07:27:47;11.60;99.90
2639;DHT22;1329;51.384;7.122;2022-12-20T07:30:17;11.60;99.90
2639;DHT22;1329;51.384;7.122;2022-12-20T07:32:46;11.60;99.90
2639;DHT22;1329;51.384;7.122;2022-12-20T07:35:15;11.60;99.90
2639;DHT22;1329;51.384;7.122;2022-12-20T07:37:42;11.60;99.90
2639;DHT22;1329;51.384;7.122;2022-12-20T07:40:11;11.60;99.90
2639;DHT22;1329;51.384;7.122;2022-12-20T07:42:39;11.60;99.90
2639;DHT22;1329;51.384;7.122;2022-12-20T07:45:07;11.60;99.90
2639;DHT22;1329;51.384;7.122;2022-12-20T07:47:39;11.60;99.90
2639;DHT22;1329;51.384;7.122;2022-12-20T07:50:09;11.60;99.90
2639;DHT22;1329;51.384;7.122;2022-12-20T07:52:38;11.60;99.90
2639;DHT22;1329;51.384;7.122;2022-12-20T07:55:06;11.60;99.90
2639;DHT22;1329;51.384;7.122;2022-12-20T07:57:41;11.60;99.90
2639;DHT22;1329;51.384;7.122;2022-12-20T08:00:10;11.60;99.90
2639;DHT22;1329;51.384;7.122;2022-12-20T08:02:41;11.60;99.90
2639;DHT22;1329;51.384;7.122;2022-12-20T08:05:14;11.60;99.90
2639;DHT22;1329;51.384;7.122;2022-12-20T08:07:43;11.60;99.90
2639;DHT22;1329;51.384;7.122;2022-12-20T08:10:13;11.60;99.90
2639;DHT22;1329;51.384;7.122;2022-12-20T08:12:44;11.60;99.90
2639;DHT22;1329;51.384;7.122;2022-12-20T08:15:12;11.60;99.90
2639;DHT22;1329;51.384;7.122;2022-12-20T08:17:41;11.60;99.90
2639;DHT22;1329;51.384;7.122;2022-12-20T08:20:09;11.60;99.90
2639;DHT22;1329;51.384;7.122;2022-12-20T08:22:37;11.70;99.90
2639;DHT22;1329;51.384;7.122;2022-12-20T08:25:05;11.70;99.90
2639;DHT22;1329;51.384;7.122;2022-12-20T08:27:33;11.70;99.90
2639;DHT22;1329;51.384;7.122;2022-12-20T08:30:02;11.70;99.90
2639;DHT22;1329;51.384;7.122;2022-12-20T08:32:30;11.70;99.90
2639;DHT22;1329;51.384;7.122;2022-12-20T08:34:58;11.70;99.90
2639;DHT22;1329;51.384;7.122;2022-12-20T08:37:26;11.70;99.90
2639;DHT22;1329;51.384;7.122;2022-12-20T08:39:55;11.70;99.90
2639;DHT22;1329;51.384;7.122;2022-12-20T08:42:24;11.80;99.90
2639;DHT22;1329;51.384;7.122;2022-12-20T08:44:54;11.80;99.90
2639;DHT22;1329;51.384;7.122;2022-12-20T08:47:21;11.90;99.90
2639;DHT22;1329;51.384;7.122;2022-12-20T08:49:49;11.90;99.90
2639;DHT22;1329;51.384;7.122;2022-12-20T08:52:18;11.90;99.90
2639;DHT22;1329;51.384;7.122;2022-12-20T08:54:49;12.00;99.90
2639;DHT22;1329;51.384;7.122;2022-12-20T08:57:16;12.00;99.90
2639;DHT22;1329;51.384;7.122;2022-12-20T08:59:43;12.00;99.90
2639;DHT22;1329;51.384;7.122;2022-12-20T09:02:10;12.00;99.90
2639;DHT22;1329;51.384;7.122;2022-12-20T09:04:38;12.10;99.90
2639;DHT22;1329;51.384;7.122;2022-12-20T09:07:05;12.10;99.90
2639;DHT22;1329;51.384;7.122;2022-12-20T09:09:37;12.20;99.90
2639;DHT22;1329;51.384;7.122;2022-12-20T09:12:05;12.20;99.90
2639;DHT22;1329;51.384;7.122;2022-12-20T09:14:33;12.20;99.90
2639;DHT22;1329;51.384;7.122;2022-12-20T09:17:01;12.20;99.90
2639;DHT22;1329;51.384;7.122;2022-12-20T09:19:28;12.20;99.90
2639;DHT22;1329;51.384;7.122;2022-12-20T09:21:55;12.20;99.90
2639;DHT22;1329;51.384;7.122;2022-12-20T09:24:22;12.30;99.90
2639;DHT22;1329;51.384;7.122;2022-12-20T09:26:51;12.20;99.90
2639;DHT22;1329;51.384;7.122;2022-12-20T09:29:21;12.30;99.90
2639;DHT22;1329;51.384;7.122;2022-12-20T09:31:50;12.30;99.90
2639;DHT22;1329;51.384;7.122;2022-12-20T09:34:18;12.40;99.90
2639;DHT22;1329;51.384;7.122;2022-12-20T09:36:45;12.40;99.90
2639;DHT22;1329;51.384;7.122;2022-12-20T09:39:12;12.40;99.90
2639;DHT22;1329;51.384;7.122;2022-12-20T09:41:41;12.30;99.90
2639;DHT22;1329;51.384;7.122;2022-12-20T09:44:14;12.40;99.90
2639;DHT22;1329;51.384;7.122;2022-12-20T09:46:46;12.40;99.90
2639;DHT22;1329;51.384;7.122;2022-12-20T09:49:20;12.40;99.90
2639;DHT22;1329;51.384;7.122;2022-12-20T09:52:03;12.40;99.90
2639;DHT22;1329;51.384;7.122;2022-12-20T09:54:47;12.40;99.90
2639;DHT22;1329;51.384;7.122;2022-12-20T09:57:23;12.40;99.90
2639;DHT22;1329;51.384;7.122;2022-12-20T09:59:56;12.40;99.90
2639;DHT22;1329;51.384;7.122;2022-12-20T10:02:24;12.50;99.90
2639;DHT22;1329;51.384;7.122;2022-12-20T10:04:53;12.50;99.90
2639;DHT22;1329;51.384;7.122;2022-12-20T10:07:31;12.50;99.90
2639;DHT22;1329;51.384;7.122;2022-12-20T10:10:23;12.50;99.90
2639;DHT22;1329;51.384;7.122;2022-12-20T10:13:22;12.60;99.90
2639;DHT22;1329;51.384;7.122;2022-12-20T10:16:02;12.60;99.90
2639;DHT22;1329;51.384;7.122;2022-12-20T10:18:51;12.60;99.90
2639;DHT22;1329;51.384;7.122;2022-12-20T10:21:34;12.70;99.90
2639;DHT22;1329;51.384;7.122;2022-12-20T10:24:13;12.70;99.90
2639;DHT22;1329;51.384;7.122;2022-12-20T10:26:43;12.70;99.90
2639;DHT22;1329;51.384;7.122;2022-12-20T10:29:11;12.70;99.90
2639;DHT22;1329;51.384;7.122;2022-12-20T10:31:41;12.70;99.90
2639;DHT22;1329;51.384;7.122;2022-12-20T10:34:09;12.70;99.90
2639;DHT22;1329;51.384;7.122;2022-12-20T10:36:40;12.70;99.90
2639;DHT22;1329;51.384;7.122;2022-12-20T10:39:08;12.70;99.90
2639;DHT22;1329;51.384;7.122;2022-12-20T10:41:48;12.70;99.90
2639;DHT22;1329;51.384;7.122;2022-12-20T10:44:19;12.70;99.90
2639;DHT22;1329;51.384;7.122;2022-12-20T10:46:55;12.80;99.90
2639;DHT22;1329;51.384;7.122;2022-12-20T10:49:28;12.80;99.90
2639;DHT22;1329;51.384;7.122;2022-12-20T10:52:07;12.80;99.90
2639;DHT22;1329;51.384;7.122;2022-12-20T10:54:40;12.80;99.90
2639;DHT22;1329;51.384;7.122;2022-12-20T10:57:16;12.90;99.90
2639;DHT22;1329;51.384;7.122;2022-12-20T11:00:04;12.90;99.90
2639;DHT22;1329;51.384;7.122;2022-12-20T11:02:35;13.00;99.90
2639;DHT22;1329;51.384;7.122;2022-12-20T11:05:21;13.00;99.90
2639;DHT22;1329;51.384;7.122;2022-12-20T11:07:55;13.00;99.90
2639;DHT22;1329;51.384;7.122;2022-12-20T11:10:25;13.10;99.90
2639;DHT22;1329;51.384;7.122;2022-12-20T11:12:54;13.10;99.90
2639;DHT22;1329;51.384;7.122;2022-12-20T11:15:24;13.20;99.90
2639;DHT22;1329;51.384;7.122;2022-12-20T11:18:02;13.20;99.90
2639;DHT22;1329;51.384;7.122;2022-12-20T11:20:37;13.20;99.90
2639;DHT22;1329;51.384;7.122;2022-12-20T11:23:17;13.30;99.90
2639;DHT22;1329;51.384;7.122;2022-12-20T11:26:00;13.40;99.90
2639;DHT22;1329;51.384;7.122;2022-12-20T11:28:49;13.40;99.90
2639;DHT22;1329;51.384;7.122;2022-12-20T11:31:34;13.40;99.90
2639;DHT22;1329;51.384;7.122;2022-12-20T11:34:18;13.40;99.90
2639;DHT22;1329;51.384;7.122;2022-12-20T11:37:06;13.50;99.90
2639;DHT22;1329;51.384;7.122;2022-12-20T11:39:53;13.40;99.90
2639;DHT22;1329;51.384;7.122;2022-12-20T11:42:40;13.50;99.90
2639;DHT22;1329;51.384;7.122;2022-12-20T11:45:20;13.50;99.90
2639;DHT22;1329;51.384;7.122;2022-12-20T11:48:03;13.50;99.90
2639;DHT22;1329;51.384;7.122;2022-12-20T11:50:58;13.50;99.90
2639;DHT22;1329;51.384;7.122;2022-12-20T11:53:33;13.50;99.90
2639;DHT22;1329;51.384;7.122;2022-12-20T11:56:07;13.50;99.90
2639;DHT22;1329;51.384;7.122;2022-12-20T11:58:45;13.50;99.90
2639;DHT22;1329;51.384;7.122;2022-12-20T12:01:18;13.50;99.90
2639;DHT22;1329;51.384;7.122;2022-12-20T12:03:58;13.50;99.90
2639;DHT22;1329;51.384;7.122;2022-12-20T12:06:33;13.50;99.90
2639;DHT22;1329;51.384;7.122;2022-12-20T12:09:11;13.50;99.90
2639;DHT22;1329;51.384;7.122;2022-12-20T12:11:45;13.50;99.90
2639;DHT22;1329;51.384;7.122;2022-12-20T12:14:21;13.50;99.90
2639;DHT22;1329;51.384;7.122;2022-12-20T12:16:58;13.50;99.90
2639;DHT22;1329;51.384;7.122;2022-12-20T12:19:30;13.50;99.90
2639;DHT22;1329;51.384;7.122;2022-12-20T12:22:03;13.50;99.90
2639;DHT22;1329;51.384;7.122;2022-12-20T12:24:36;13.50;99.90
2639;DHT22;1329;51.384;7.122;2022-12-20T12:27:11;13.50;99.90
2639;DHT22;1329;51.384;7.122;2022-12-20T12:29:45;13.50;99.90
2639;DHT22;1329;51.384;7.122;2022-12-20T12:32:17;13.50;99.90
2639;DHT22;1329;51.384;7.122;2022-12-20T12:35:02;13.40;99.90
2639;DHT22;1329;51.384;7.122;2022-12-20T12:37:53;13.50;99.90
2639;DHT22;1329;51.384;7.122;2022-12-20T12:40:38;13.50;99.90
2639;DHT22;1329;51.384;7.122;2022-12-20T12:46:21;13.40;99.90
2639;DHT22;1329;51.384;7.122;2022-12-20T12:48:56;13.40;99.90
2639;DHT22;1329;51.384;7.122;2022-12-20T12:51:30;13.40;99.90
2639;DHT22;1329;51.384;7.122;2022-12-20T12:54:15;13.40;99.90
2639;DHT22;1329;51.384;7.122;2022-12-20T12:56:46;13.40;99.90
2639;DHT22;1329;51.384;7.122;2022-12-20T12:59:48;13.40;99.90
2639;DHT22;1329;51.384;7.122;2022-12-20T13:05:31;13.40;99.90
2639;DHT22;1329;51.384;7.122;2022-12-20T13:08:02;13.30;99.90
2639;DHT22;1329;51.384;7.122;2022-12-20T13:11:00;13.30;99.90
2639;DHT22;1329;51.384;7.122;2022-12-20T13:13:28;13.30;99.90
2639;DHT22;1329;51.384;7.122;2022-12-20T13:16:10;13.20;99.90
2639;DHT22;1329;51.384;7.122;2022-12-20T13:19:12;13.20;99.90
2639;DHT22;1329;51.384;7.122;2022-12-20T13:21:42;13.20;99.90
2639;DHT22;1329;51.384;7.122;2022-12-20T13:24:55;13.10;99.90
2639;DHT22;1329;51.384;7.122;2022-12-20T13:27:29;13.10;99.90
2639;DHT22;1329;51.384;7.122;2022-12-20T13:33:21;13.00;99.90
2639;DHT22;1329;51.384;7.122;2022-12-20T13:36:00;12.90;99.90
2639;DHT22;1329;51.384;7.122;2022-12-20T13:38:53;12.90;99.90
2639;DHT22;1329;51.384;7.122;2022-12-20T13:41:35;12.80;99.90
2639;DHT22;1329;51.384;7.122;2022-12-20T13:44:38;12.80;99.90
2639;DHT22;1329;51.384;7.122;2022-12-20T13:47:28;12.70;99.90
2639;DHT22;1329;51.384;7.122;2022-12-20T13:50:16;12.70;99.90
2639;DHT22;1329;51.384;7.122;2022-12-20T13:52:48;12.60;99.90
2639;DHT22;1329;51.384;7.122;2022-12-20T13:55:26;12.60;99.90
2639;DHT22;1329;51.384;7.122;2022-12-20T13:58:09;12.60;99.90
2639;DHT22;1329;51.384;7.122;2022-12-20T14:00:38;12.60;99.90
2639;DHT22;1329;51.384;7.122;2022-12-20T14:03:18;12.50;99.90
2639;DHT22;1329;51.384;7.122;2022-12-20T14:05:55;12.50;99.90
2639;DHT22;1329;51.384;7.122;2022-12-20T14:08:29;12.50;99.90
2639;DHT22;1329;51.384;7.122;2022-12-20T14:11:09;12.50;99.90
2639;DHT22;1329;51.384;7.122;2022-12-20T14:13:40;12.50;99.90
2639;DHT22;1329;51.384;7.122;2022-12-20T14:16:14;12.50;99.90
2639;DHT22;1329;51.384;7.122;2022-12-20T14:18:47;12.40;99.90
2639;DHT22;1329;51.384;7.122;2022-12-20T14:21:15;12.40;99.90
2639;DHT22;1329;51.384;7.122;2022-12-20T14:23:48;12.40;99.90
2639;DHT22;1329;51.384;7.122;2022-12-20T14:26:20;12.40;99.90
2639;DHT22;1329;51.384;7.122;2022-12-20T14:28:52;12.40;99.90
2639;DHT22;1329;51.384;7.122;2022-12-20T14:31:28;12.40;99.90
2639;DHT22;1329;51.384;7.122;2022-12-20T14:34:04;12.30;99.90
2639;DHT22;1329;51.384;7.122;2022-12-20T14:36:32;12.30;99.90
2639;DHT22;1329;51.384;7.122;2022-12-20T14:39:18;12.20;99.90
2639;DHT22;1329;51.384;7.122;2022-12-20T14:41:54;12.20;99.90
2639;DHT22;1329;51.384;7.122;2022-12-20T14:44:27;12.20;99.90
2639;DHT22;1329;51.384;7.122;2022-12-20T14:46:57;12.20;99.90
2639;DHT22;1329;51.384;7.122;2022-12-20T14:49:28;12.20;99.90
2639;DHT22;1329;51.384;7.122;2022-12-20T14:52:06;12.20;99.90
2639;DHT22;1329;51.384;7.122;2022-12-20T14:54:43;12.20;99.90
2639;DHT22;1329;51.384;7.122;2022-12-20T14:57:21;12.10;99.90
2639;DHT22;1329;51.384;7.122;2022-12-20T15:00:00;12.10;99.90
2639;DHT22;1329;51.384;7.122;2022-12-20T15:02:35;12.10;99.90
2639;DHT22;1329;51.384;7.122;2022-12-20T15:05:45;12.10;99.90
2639;DHT22;1329;51.384;7.122;2022-12-20T15:08:19;12.10;99.90
2639;DHT22;1329;51.384;7.122;2022-12-20T15:10:59;12.10;99.90
2639;DHT22;1329;51.384;7.122;2022-12-20T15:13:31;12.00;99.90
2639;DHT22;1329;51.384;7.122;2022-12-20T15:16:03;12.00;99.90
2639;DHT22;1329;51.384;7.122;2022-12-20T15:18:39;12.00;99.90
2639;DHT22;1329;51.384;7.122;2022-12-20T15:21:13;12.00;99.90
2639;DHT22;1329;51.384;7.122;2022-12-20T15:23:45;12.00;99.90
2639;DHT22;1329;51.384;7.122;2022-12-20T15:26:14;12.00;99.90
2639;DHT22;1329;51.384;7.122;2022-12-20T15:28:42;12.00;99.90
2639;DHT22;1329;51.384;7.122;2022-12-20T15:31:13;12.00;99.90
2639;DHT22;1329;51.384;7.122;2022-12-20T15:33:43;12.00;99.90
2639;DHT22;1329;51.384;7.122;2022-12-20T15:36:15;11.90;99.90
2639;DHT22;1329;51.384;7.122;2022-12-20T15:38:43;11.90;99.90
2639;DHT22;1329;51.384;7.122;2022-12-20T15:41:21;11.90;99.90
2639;DHT22;1329;51.384;7.122;2022-12-20T15:43:53;11.90;99.90
2639;DHT22;1329;51.384;7.122;2022-12-20T15:46:23;11.90;99.90
2639;DHT22;1329;51.384;7.122;2022-12-20T15:48:53;11.90;99.90
2639;DHT22;1329;51.384;7.122;2022-12-20T15:51:25;11.90;99.90
2639;DHT22;1329;51.384;7.122;2022-12-20T15:53:54;11.90;99.90
2639;DHT22;1329;51.384;7.122;2022-12-20T15:56:22;11.90;99.90
2639;DHT22;1329;51.384;7.122;2022-12-20T15:58:53;11.90;99.90
2639;DHT22;1329;51.384;7.122;2022-12-20T16:01:24;11.90;99.90
2639;DHT22;1329;51.384;7.122;2022-12-20T16:03:54;11.90;99.90
2639;DHT22;1329;51.384;7.122;2022-12-20T16:06:24;11.90;99.90
2639;DHT22;1329;51.384;7.122;2022-12-20T16:08:51;11.80;99.90
2639;DHT22;1329;51.384;7.122;2022-12-20T16:11:23;11.90;99.90
2639;DHT22;1329;51.384;7.122;2022-12-20T16:13:52;11.90;99.90
2639;DHT22;1329;51.384;7.122;2022-12-20T16:16:23;11.80;99.90
2639;DHT22;1329;51.384;7.122;2022-12-20T16:18:51;11.80;99.90
2639;DHT22;1329;51.384;7.122;2022-12-20T16:21:20;11.90;99.90
2639;DHT22;1329;51.384;7.122;2022-12-20T16:23:48;11.90;99.90
2639;DHT22;1329;51.384;7.122;2022-12-20T16:26:17;11.90;99.90
2639;DHT22;1329;51.384;7.122;2022-12-20T16:28:46;11.90;99.90
2639;DHT22;1329;51.384;7.122;2022-12-20T16:31:23;11.90;99.90
2639;DHT22;1329;51.384;7.122;2022-12-20T16:33:54;11.90;99.90
2639;DHT22;1329;51.384;7.122;2022-12-20T16:36:22;11.90;99.90
2639;DHT22;1329;51.384;7.122;2022-12-20T16:38:50;11.90;99.90
2639;DHT22;1329;51.384;7.122;2022-12-20T16:41:19;12.00;99.90
2639;DHT22;1329;51.384;7.122;2022-12-20T16:43:49;11.90;99.90
2639;DHT22;1329;51.384;7.122;2022-12-20T16:46:19;11.90;99.90